sensor_id;sensor_type;location;lat;lon;timestamp;temperature;humidity
43607;DHT22;29197;44.788;10.366;2023-08-31T06:56:49;21.80;99.90
43607;DHT22;29197;44.788;10.366;2023-08-31T06:59:38;21.80;99.90
43607;DHT22;29197;44.788;10.366;2023-08-31T07:02:29;21.80;99.90
43607;DHT22;29197;44.788;10.366;2023-08-31T07:05:17;21.70;99.90
43607;DHT22;29197;44.788;10.366;2023-08-31T07:08:12;21.60;99.90
43607;DHT22;29197;44.788;10.366;2023-08-31T07:11:01;21.50;99.90
43607;DHT22;29197;44.788;10.366;2023-08-31T07:13:49;21.60;99.90
43607;DHT22;29197;44.788;10.366;2023-08-31T07:16:38;21.60;99.90
43607;DHT22;29197;44.788;10.366;2023-08-31T07:19:28;21.70;99.90
43607;DHT22;29197;44.788;10.366;2023-08-31T07:22:16;21.90;99.90
43607;DHT22;29197;44.788;10.366;2023-08-31T08:38:26;23.70;99.90
43607;DHT22;29197;44.788;10.366;2023-08-31T08:41:15;23.80;99.90
43607;DHT22;29197;44.788;10.366;2023-08-31T10:21:01;26.60;99.90
43607;DHT22;29197;44.788;10.366;2023-08-31T10:23:51;26.60;99.90
43607;DHT22;29197;44.788;10.366;2023-08-31T10:26:41;26.60;99.90
43607;DHT22;29197;44.788;10.366;2023-08-31T10:29:30;26.60;99.90
43607;DHT22;29197;44.788;10.366;2023-08-31T10:32:19;26.80;99.90
43607;DHT22;29197;44.788;10.366;2023-08-31T10:35:09;26.80;99.90
43607;DHT22;29197;44.788;10.366;2023-08-31T10:41:30;27.10;99.90
43607;DHT22;29197;44.788;10.366;2023-08-31T10:44:22;27.10;99.90
43607;DHT22;29197;44.788;10.366;2023-08-31T10:47:11;26.90;99.90
43607;DHT22;29197;44.788;10.366;2023-08-31T10:50:16;26.90;99.90
43607;DHT22;29197;44.788;10.366;2023-08-31T10:53:08;26.90;99.90
43607;DHT22;29197;44.788;10.366;2023-08-31T10:55:57;27.10;99.90
43607;DHT22;29197;44.788;10.366;2023-08-31T11:01:57;27.50;99.90
43607;DHT22;29197;44.788;10.366;2023-08-31T11:04:53;27.50;99.90
43607;DHT22;29197;44.788;10.366;2023-08-31T12:04:31;29.90;99.90
43607;DHT22;29197;44.788;10.366;2023-08-31T12:07:19;29.90;99.90
43607;DHT22;29197;44.788;10.366;2023-08-31T12:10:10;29.80;99.90
43607;DHT22;29197;44.788;10.366;2023-08-31T12:13:09;29.30;99.90
43607;DHT22;29197;44.788;10.366;2023-08-31T12:15:58;28.80;99.90
43607;DHT22;29197;44.788;10.366;2023-08-31T12:18:49;28.40;99.90
43607;DHT22;29197;44.788;10.366;2023-08-31T12:21:37;27.90;99.90
43607;DHT22;29197;44.788;10.366;2023-08-31T12:27:16;27.20;99.90
43607;DHT22;29197;44.788;10.366;2023-08-31T12:38:33;26.60;99.90
43607;DHT22;29197;44.788;10.366;2023-08-31T12:41:22;26.50;99.90
43607;DHT22;29197;44.788;10.366;2023-08-31T12:44:12;26.30;99.90
43607;DHT22;29197;44.788;10.366;2023-08-31T12:47:01;26.20;99.90
43607;DHT22;29197;44.788;10.366;2023-08-31T12:49:51;26.30;99.90
43607;DHT22;29197;44.788;10.366;2023-08-31T12:52:40;26.20;99.90
43607;DHT22;29197;44.788;10.366;2023-08-31T12:55:33;26.40;99.90
43607;DHT22;29197;44.788;10.366;2023-08-31T12:58:21;26.80;99.90
43607;DHT22;29197;44.788;10.366;2023-08-31T13:01:11;27.20;99.90
43607;DHT22;29197;44.788;10.366;2023-08-31T13:04:00;27.80;99.90
43607;DHT22;29197;44.788;10.366;2023-08-31T13:06:49;28.30;99.90
43607;DHT22;29197;44.788;10.366;2023-08-31T13:09:38;28.50;99.90
43607;DHT22;29197;44.788;10.366;2023-08-31T13:12:26;28.70;99.90
43607;DHT22;29197;44.788;10.366;2023-08-31T13:15:15;28.90;99.90
43607;DHT22;29197;44.788;10.366;2023-08-31T13:18:05;29.10;99.90
43607;DHT22;29197;44.788;10.366;2023-08-31T13:20:54;29.20;99.90
43607;DHT22;29197;44.788;10.366;2023-08-31T13:23:43;29.50;99.90
43607;DHT22;29197;44.788;10.366;2023-08-31T13:26:32;29.50;99.90
43607;DHT22;29197;44.788;10.366;2023-08-31T13:34:59;29.90;99.90
43607;DHT22;29197;44.788;10.366;2023-08-31T13:40:37;30.20;99.90
43607;DHT22;29197;44.788;10.366;2023-08-31T13:43:25;30.20;99.90
43607;DHT22;29197;44.788;10.366;2023-08-31T13:46:14;30.10;99.90
43607;DHT22;29197;44.788;10.366;2023-08-31T13:49:03;30.10;99.90
43607;DHT22;29197;44.788;10.366;2023-08-31T13:51:53;30.10;99.90
43607;DHT22;29197;44.788;10.366;2023-08-31T13:54:41;30.00;99.90
43607;DHT22;29197;44.788;10.366;2023-08-31T13:57:30;29.80;99.90
43607;DHT22;29197;44.788;10.366;2023-08-31T14:00:19;29.70;99.90
43607;DHT22;29197;44.788;10.366;2023-08-31T14:03:07;29.50;99.90
43607;DHT22;29197;44.788;10.366;2023-08-31T14:05:56;29.40;99.90
43607;DHT22;29197;44.788;10.366;2023-08-31T14:08:46;29.30;99.90
43607;DHT22;29197;44.788;10.366;2023-08-31T14:11:34;29.30;99.90
43607;DHT22;29197;44.788;10.366;2023-08-31T14:14:23;28.80;99.90
43607;DHT22;29197;44.788;10.366;2023-08-31T14:17:12;28.60;99.90
43607;DHT22;29197;44.788;10.366;2023-08-31T14:22:53;28.10;99.90
43607;DHT22;29197;44.788;10.366;2023-08-31T17:43:20;25.50;99.90
43607;DHT22;29197;44.788;10.366;2023-08-31T17:46:09;25.50;99.90
43607;DHT22;29197;44.788;10.366;2023-08-31T17:48:59;25.40;99.90
43607;DHT22;29197;44.788;10.366;2023-08-31T17:51:48;25.40;99.90
43607;DHT22;29197;44.788;10.366;2023-08-31T17:54:36;25.40;99.90
43607;DHT22;29197;44.788;10.366;2023-08-31T18:08:45;25.20;99.90
43607;DHT22;29197;44.788;10.366;2023-08-31T18:11:34;24.90;99.90
43607;DHT22;29197;44.788;10.366;2023-08-31T18:14:23;25.20;99.90
43607;DHT22;29197;44.788;10.366;2023-08-31T18:17:12;25.10;99.90
43607;DHT22;29197;44.788;10.366;2023-08-31T18:20:00;24.90;99.90
43607;DHT22;29197;44.788;10.366;2023-08-31T18:22:50;24.90;99.90
43607;DHT22;29197;44.788;10.366;2023-08-31T18:25:39;24.90;99.90
43607;DHT22;29197;44.788;10.366;2023-08-31T18:28:27;24.70;99.90
43607;DHT22;29197;44.788;10.366;2023-08-31T18:31:16;24.70;99.90
43607;DHT22;29197;44.788;10.366;2023-08-31T18:34:04;24.70;99.90
43607;DHT22;29197;44.788;10.366;2023-08-31T18:36:53;24.60;99.90
43607;DHT22;29197;44.788;10.366;2023-08-31T18:39:44;24.50;99.90
43607;DHT22;29197;44.788;10.366;2023-08-31T18:42:33;24.40;99.90
43607;DHT22;29197;44.788;10.366;2023-08-31T18:45:26;24.40;99.90
43607;DHT22;29197;44.788;10.366;2023-08-31T18:48:15;24.40;99.90
43607;DHT22;29197;44.788;10.366;2023-08-31T18:51:04;24.50;99.90
43607;DHT22;29197;44.788;10.366;2023-08-31T18:53:52;24.60;99.90
43607;DHT22;29197;44.788;10.366;2023-08-31T18:56:42;24.50;99.90
43607;DHT22;29197;44.788;10.366;2023-08-31T18:59:31;24.50;99.90
43607;DHT22;29197;44.788;10.366;2023-08-31T19:02:19;24.40;99.90
43607;DHT22;29197;44.788;10.366;2023-08-31T19:05:09;24.20;99.90
43607;DHT22;29197;44.788;10.366;2023-08-31T19:07:58;24.10;99.90
43607;DHT22;29197;44.788;10.366;2023-08-31T19:10:47;24.20;99.90
43607;DHT22;29197;44.788;10.366;2023-08-31T19:13:38;24.20;99.90
43607;DHT22;29197;44.788;10.366;2023-08-31T19:16:26;24.20;99.90
43607;DHT22;29197;44.788;10.366;2023-08-31T19:19:19;24.00;99.90
43607;DHT22;29197;44.788;10.366;2023-08-31T19:22:08;24.00;99.90
43607;DHT22;29197;44.788;10.366;2023-08-31T19:24:56;24.00;99.90
43607;DHT22;29197;44.788;10.366;2023-08-31T19:27:45;24.00;99.90
43607;DHT22;29197;44.788;10.366;2023-08-31T19:30:37;23.90;99.90
43607;DHT22;29197;44.788;10.366;2023-08-31T19:33:25;23.80;99.90
43607;DHT22;29197;44.788;10.366;2023-08-31T19:36:14;23.80;99.90
43607;DHT22;29197;44.788;10.366;2023-08-31T19:39:03;23.90;99.90
43607;DHT22;29197;44.788;10.366;2023-08-31T19:41:51;23.90;99.90
43607;DHT22;29197;44.788;10.366;2023-08-31T19:44:40;24.00;99.90
43607;DHT22;29197;44.788;10.366;2023-08-31T19:47:30;24.00;99.90
43607;DHT22;29197;44.788;10.366;2023-08-31T19:50:18;24.00;99.90
43607;DHT22;29197;44.788;10.366;2023-08-31T19:53:10;23.90;99.90
43607;DHT22;29197;44.788;10.366;2023-08-31T19:56:01;23.90;99.90
43607;DHT22;29197;44.788;10.366;2023-08-31T19:58:51;23.80;99.90
43607;DHT22;29197;44.788;10.366;2023-08-31T20:01:46;23.50;99.90
43607;DHT22;29197;44.788;10.366;2023-08-31T20:04:36;23.50;99.90
43607;DHT22;29197;44.788;10.366;2023-08-31T20:07:25;23.50;99.90
43607;DHT22;29197;44.788;10.366;2023-08-31T20:10:14;23.60;99.90
43607;DHT22;29197;44.788;10.366;2023-08-31T20:13:03;23.60;99.90
43607;DHT22;29197;44.788;10.366;2023-08-31T20:15:58;23.60;99.90
43607;DHT22;29197;44.788;10.366;2023-08-31T20:18:47;23.60;99.90
43607;DHT22;29197;44.788;10.366;2023-08-31T20:21:36;23.40;99.90
43607;DHT22;29197;44.788;10.366;2023-08-31T20:24:25;23.30;99.90
43607;DHT22;29197;44.788;10.366;2023-08-31T20:27:14;23.20;99.90
43607;DHT22;29197;44.788;10.366;2023-08-31T20:30:03;23.40;99.90
43607;DHT22;29197;44.788;10.366;2023-08-31T20:32:53;23.40;99.90
43607;DHT22;29197;44.788;10.366;2023-08-31T20:35:42;23.40;99.90
43607;DHT22;29197;44.788;10.366;2023-08-31T20:38:32;23.40;99.90
43607;DHT22;29197;44.788;10.366;2023-08-31T20:41:21;23.20;99.90
43607;DHT22;29197;44.788;10.366;2023-08-31T20:44:09;23.30;99.90
43607;DHT22;29197;44.788;10.366;2023-08-31T20:46:58;23.20;99.90
43607;DHT22;29197;44.788;10.366;2023-08-31T20:49:46;23.20;99.90
43607;DHT22;29197;44.788;10.366;2023-08-31T20:52:35;23.10;99.90
43607;DHT22;29197;44.788;10.366;2023-08-31T20:55:25;22.90;99.90
43607;DHT22;29197;44.788;10.366;2023-08-31T20:58:16;22.80;99.90
43607;DHT22;29197;44.788;10.366;2023-08-31T21:01:05;22.70;99.90
43607;DHT22;29197;44.788;10.366;2023-08-31T21:03:55;22.80;99.90
43607;DHT22;29197;44.788;10.366;2023-08-31T21:06:44;22.70;99.90
43607;DHT22;29197;44.788;10.366;2023-08-31T21:09:34;22.80;99.90
43607;DHT22;29197;44.788;10.366;2023-08-31T21:12:24;22.80;99.90
43607;DHT22;29197;44.788;10.366;2023-08-31T21:15:13;22.90;99.90
43607;DHT22;29197;44.788;10.366;2023-08-31T21:18:02;22.90;99.90
43607;DHT22;29197;44.788;10.366;2023-08-31T21:20:52;22.90;99.90
43607;DHT22;29197;44.788;10.366;2023-08-31T21:23:41;22.90;99.90
43607;DHT22;29197;44.788;10.366;2023-08-31T21:26:29;22.90;99.90
43607;DHT22;29197;44.788;10.366;2023-08-31T21:29:21;22.90;99.90
43607;DHT22;29197;44.788;10.366;2023-08-31T21:32:09;22.90;99.90
43607;DHT22;29197;44.788;10.366;2023-08-31T21:34:58;22.90;99.90
43607;DHT22;29197;44.788;10.366;2023-08-31T21:37:47;22.90;99.90
43607;DHT22;29197;44.788;10.366;2023-08-31T21:40:37;22.80;99.90
43607;DHT22;29197;44.788;10.366;2023-08-31T21:43:25;22.80;99.90
43607;DHT22;29197;44.788;10.366;2023-08-31T21:46:16;22.70;99.90
43607;DHT22;29197;44.788;10.366;2023-08-31T21:49:05;22.60;99.90
43607;DHT22;29197;44.788;10.366;2023-08-31T21:51:53;22.50;99.90
43607;DHT22;29197;44.788;10.366;2023-08-31T21:54:42;22.50;99.90
43607;DHT22;29197;44.788;10.366;2023-08-31T21:57:31;22.40;99.90
43607;DHT22;29197;44.788;10.366;2023-08-31T22:00:21;22.30;99.90
43607;DHT22;29197;44.788;10.366;2023-08-31T22:03:11;22.40;99.90
43607;DHT22;29197;44.788;10.366;2023-08-31T22:06:07;22.30;99.90
43607;DHT22;29197;44.788;10.366;2023-08-31T22:08:55;22.20;99.90
43607;DHT22;29197;44.788;10.366;2023-08-31T22:11:45;22.00;99.90
43607;DHT22;29197;44.788;10.366;2023-08-31T22:14:34;22.00;99.90
43607;DHT22;29197;44.788;10.366;2023-08-31T22:17:23;22.00;99.90
43607;DHT22;29197;44.788;10.366;2023-08-31T22:20:13;21.90;99.90
43607;DHT22;29197;44.788;10.366;2023-08-31T22:23:03;21.80;99.90
43607;DHT22;29197;44.788;10.366;2023-08-31T22:25:52;21.90;99.90
43607;DHT22;29197;44.788;10.366;2023-08-31T22:28:40;21.90;99.90
43607;DHT22;29197;44.788;10.366;2023-08-31T22:31:29;21.80;99.90
43607;DHT22;29197;44.788;10.366;2023-08-31T22:34:17;21.70;99.90
43607;DHT22;29197;44.788;10.366;2023-08-31T22:37:08;21.70;99.90
43607;DHT22;29197;44.788;10.366;2023-08-31T22:39:57;21.70;99.90
43607;DHT22;29197;44.788;10.366;2023-08-31T22:42:46;21.70;99.90
43607;DHT22;29197;44.788;10.366;2023-08-31T22:45:34;21.70;99.90
43607;DHT22;29197;44.788;10.366;2023-08-31T22:48:23;21.70;99.90
43607;DHT22;29197;44.788;10.366;2023-08-31T22:51:11;21.70;99.90
43607;DHT22;29197;44.788;10.366;2023-08-31T22:54:01;21.60;99.90
43607;DHT22;29197;44.788;10.366;2023-08-31T22:56:50;21.60;99.90
43607;DHT22;29197;44.788;10.366;2023-08-31T22:59:39;21.60;99.90
43607;DHT22;29197;44.788;10.366;2023-08-31T23:02:28;21.60;99.90
43607;DHT22;29197;44.788;10.366;2023-08-31T23:05:16;21.60;99.90
43607;DHT22;29197;44.788;10.366;2023-08-31T23:08:06;21.60;99.90
43607;DHT22;29197;44.788;10.366;2023-08-31T23:10:58;21.60;99.90
43607;DHT22;29197;44.788;10.366;2023-08-31T23:13:47;21.60;99.90
43607;DHT22;29197;44.788;10.366;2023-08-31T23:16:36;21.50;99.90
43607;DHT22;29197;44.788;10.366;2023-08-31T23:19:25;21.50;99.90
43607;DHT22;29197;44.788;10.366;2023-08-31T23:22:13;21.50;99.90
43607;DHT22;29197;44.788;10.366;2023-08-31T23:25:02;21.50;99.90
43607;DHT22;29197;44.788;10.366;2023-08-31T23:27:53;21.50;99.90
43607;DHT22;29197;44.788;10.366;2023-08-31T23:30:41;21.40;99.90
43607;DHT22;29197;44.788;10.366;2023-08-31T23:33:30;21.50;99.90
43607;DHT22;29197;44.788;10.366;2023-08-31T23:36:19;21.50;99.90
43607;DHT22;29197;44.788;10.366;2023-08-31T23:39:07;21.50;99.90
43607;DHT22;29197;44.788;10.366;2023-08-31T23:41:56;21.40;99.90
43607;DHT22;29197;44.788;10.366;2023-08-31T23:44:46;21.40;99.90
43607;DHT22;29197;44.788;10.366;2023-08-31T23:47:34;21.30;99.90
43607;DHT22;29197;44.788;10.366;2023-08-31T23:50:23;21.20;99.90
43607;DHT22;29197;44.788;10.366;2023-08-31T23:53:12;21.10;99.90
43607;DHT22;29197;44.788;10.366;2023-08-31T23:56:02;21.10;99.90
43607;DHT22;29197;44.788;10.366;2023-08-31T23:58:52;21.30;99.90
